Time;durP1;ratioP1;P1;durP2;ratioP2;P2;SDS_P1;SDS_P2;PMS_P1;PMS_P2;Temp;Humidity;BMP_temperature;BMP_pressure;BME280_temperature;BME280_humidity;BME280_pressure;Samples;Min_cycle;Max_cycle;Signal;HPM_P1;HPM_P2
2023/04/21 00:01:10;;;;;;;17.20;14.02;;;;;;;7.75;100.00;101636.91;5075200;28;20028;-72
2023/04/21 00:03:40;;;;;;;20.08;14.70;;;;;;;7.76;100.00;101639.50;5076737;28;20027;-70
2023/04/21 00:06:06;;;;;;;18.15;14.77;;;;;;;7.72;100.00;101642.69;5076014;28;20032;-71
2023/04/21 00:08:33;;;;;;;20.33;15.07;;;;;;;7.70;100.00;101645.56;5077085;28;20094;-71
2023/04/21 00:10:58;;;;;;;19.10;15.45;;;;;;;7.74;100.00;101637.94;5078053;28;20285;-70
2023/04/21 00:13:24;;;;;;;23.02;16.42;;;;;;;7.72;100.00;101648.13;5072562;28;20028;-71
2023/04/21 00:15:50;;;;;;;20.40;16.35;;;;;;;7.69;100.00;101643.00;5081323;28;20461;-70
2023/04/21 00:18:16;;;;;;;21.10;16.70;;;;;;;7.71;100.00;101649.16;5082485;28;20028;-70
2023/04/21 00:20:43;;;;;;;26.15;16.95;;;;;;;7.77;100.00;101653.97;5067867;28;20047;-70
2023/04/21 00:23:10;;;;;;;22.25;17.13;;;;;;;7.77;100.00;101652.09;5065637;28;20032;-70
2023/04/21 00:25:35;;;;;;;22.45;16.63;;;;;;;7.73;100.00;101636.19;5069576;28;20024;-70
2023/04/21 00:28:01;;;;;;;25.15;17.90;;;;;;;7.70;100.00;101637.38;5079730;28;20032;-70
2023/04/21 00:30:26;;;;;;;24.55;16.73;;;;;;;7.71;100.00;101638.25;5075642;28;20017;-70
2023/04/21 00:32:52;;;;;;;29.15;17.83;;;;;;;7.69;100.00;101632.94;5074708;28;20112;-70
2023/04/21 00:35:17;;;;;;;24.80;17.67;;;;;;;7.71;100.00;101621.88;5080983;28;20032;-70
2023/04/21 00:37:43;;;;;;;27.17;17.25;;;;;;;7.70;100.00;101614.72;5076848;28;20428;-70
2023/04/21 00:40:09;;;;;;;23.65;18.48;;;;;;;7.73;100.00;101609.81;5077806;28;20092;-70
2023/04/21 00:42:34;;;;;;;30.70;18.52;;;;;;;7.71;100.00;101616.44;5079116;28;20032;-69
2023/04/21 00:45:00;;;;;;;22.60;16.40;;;;;;;7.73;100.00;101615.25;5078948;28;20461;-70
2023/04/21 00:47:26;;;;;;;23.23;17.30;;;;;;;7.70;100.00;101612.84;5076595;28;20038;-69
2023/04/21 00:49:52;;;;;;;25.65;18.23;;;;;;;7.68;100.00;101603.97;5081948;28;20022;-69
2023/04/21 00:52:18;;;;;;;24.67;18.42;;;;;;;7.65;100.00;101595.25;5080786;28;20353;-69
2023/04/21 00:54:43;;;;;;;27.48;20.17;;;;;;;7.62;100.00;101593.72;5078613;28;20476;-69
2023/04/21 00:57:12;;;;;;;26.02;18.38;;;;;;;7.60;100.00;101582.13;5079128;28;20112;-69
2023/04/21 00:59:37;;;;;;;26.55;18.73;;;;;;;7.67;100.00;101590.50;5081162;28;20047;-69
2023/04/21 01:02:03;;;;;;;24.75;18.35;;;;;;;7.62;100.00;101587.41;5075615;28;20094;-69
2023/04/21 01:04:34;;;;;;;29.33;19.92;;;;;;;7.64;100.00;101593.56;5064593;28;20202;-70
2023/04/21 01:07:00;;;;;;;28.33;20.50;;;;;;;7.63;100.00;101592.69;5079293;28;20039;-70
2023/04/21 01:09:26;;;;;;;26.83;18.85;;;;;;;7.62;100.00;101601.91;5061854;28;20493;-69
2023/04/21 01:12:06;;;;;;;32.83;18.70;;;;;;;7.60;100.00;101587.56;5081376;28;20035;-69
2023/04/21 01:14:31;;;;;;;27.40;20.00;;;;;;;7.69;100.00;101585.75;5077696;28;20029;-70
2023/04/21 01:16:57;;;;;;;29.60;20.95;;;;;;;7.67;100.00;101582.31;5082744;28;20500;-69
2023/04/21 01:19:24;;;;;;;30.27;19.95;;;;;;;7.62;100.00;101588.25;5077459;28;20031;-69
2023/04/21 01:21:52;;;;;;;27.37;19.97;;;;;;;7.67;100.00;101599.53;5065984;28;20031;-70
2023/04/21 01:24:18;;;;;;;36.92;21.23;;;;;;;7.68;100.00;101600.41;5080198;28;20291;-71
2023/04/21 01:26:48;;;;;;;28.60;19.98;;;;;;;7.69;100.00;101593.94;5065730;28;20024;-69
2023/04/21 01:29:14;;;;;;;30.55;20.95;;;;;;;7.69;100.00;101580.31;5078774;28;20023;-69
2023/04/21 01:31:40;;;;;;;32.28;20.23;;;;;;;7.67;100.00;101579.59;5077031;28;20660;-69
2023/04/21 01:34:05;;;;;;;29.73;20.58;;;;;;;7.67;100.00;101576.88;5082281;28;20036;-70
2023/04/21 01:36:31;;;;;;;34.95;21.63;;;;;;;7.59;100.00;101580.38;5071168;28;20036;-70
2023/04/21 01:38:56;;;;;;;30.55;21.10;;;;;;;7.60;100.00;101583.97;5078391;28;20394;-70
2023/04/21 01:41:22;;;;;;;28.73;21.23;;;;;;;7.62;100.00;101581.94;5082682;28;20040;-69
2023/04/21 01:43:47;;;;;;;32.33;21.27;;;;;;;7.65;100.00;101570.72;5082917;28;20025;-69
2023/04/21 01:46:13;;;;;;;30.38;21.52;;;;;;;7.61;100.00;101566.59;5078336;28;20093;-69
2023/04/21 01:48:38;;;;;;;33.75;21.92;;;;;;;7.62;100.00;101571.91;5076430;28;20082;-69
2023/04/21 01:51:04;;;;;;;32.55;21.33;;;;;;;7.56;100.00;101572.56;5078728;28;20066;-69
2023/04/21 01:53:29;;;;;;;31.08;21.15;;;;;;;7.57;100.00;101571.53;5076357;28;20088;-69
2023/04/21 01:55:54;;;;;;;32.80;20.40;;;;;;;7.56;100.00;101558.06;5077055;28;20042;-69
2023/04/21 01:58:20;;;;;;;30.83;21.10;;;;;;;7.51;100.00;101546.78;5080188;28;20067;-69
2023/04/21 02:00:46;;;;;;;29.77;21.38;;;;;;;7.52;100.00;101549.34;5050281;28;20089;-70
2023/04/21 02:03:11;;;;;;;31.00;21.33;;;;;;;7.50;100.00;101553.25;5083663;28;20027;-69
2023/04/21 02:05:36;;;;;;;30.80;21.08;;;;;;;7.53;100.00;101558.38;5078021;28;20548;-70
2023/04/21 02:08:02;;;;;;;30.65;20.45;;;;;;;7.50;100.00;101553.25;5076748;28;20123;-69
2023/04/21 02:10:27;;;;;;;38.00;22.20;;;;;;;7.54;100.00;101554.66;5062645;28;20103;-69
2023/04/21 02:12:57;;;;;;;30.10;22.27;;;;;;;7.50;100.00;101554.13;5080205;28;20051;-69
2023/04/21 02:15:22;;;;;;;33.67;21.85;;;;;;;7.46;100.00;101540.94;5076250;28;20036;-65
2023/04/21 02:17:48;;;;;;;31.67;20.13;;;;;;;7.48;100.00;101544.38;5077692;28;20032;-65
2023/04/21 02:20:13;;;;;;;29.77;20.10;;;;;;;7.51;100.00;101533.16;5077860;28;20039;-65
2023/04/21 02:22:39;;;;;;;28.67;20.02;;;;;;;7.49;100.00;101540.63;5074313;28;20032;-65
2023/04/21 02:25:05;;;;;;;26.90;19.17;;;;;;;7.39;100.00;101543.47;5075571;28;20020;-65
2023/04/21 02:27:30;;;;;;;29.63;18.90;;;;;;;7.39;100.00;101542.63;5079337;28;20397;-65
2023/04/21 02:29:56;;;;;;;24.38;16.55;;;;;;;7.47;100.00;101529.06;5082865;28;20038;-64
2023/04/21 02:32:21;;;;;;;25.95;17.92;;;;;;;7.41;100.00;101529.66;5073999;28;20055;-66
2023/04/21 02:34:47;;;;;;;30.48;18.15;;;;;;;7.37;100.00;101537.31;5077539;28;20020;-66
2023/04/21 02:37:12;;;;;;;24.58;17.48;;;;;;;7.38;100.00;101543.63;5072328;28;20484;-65
2023/04/21 02:39:37;;;;;;;23.48;17.52;;;;;;;7.38;100.00;101532.72;5073443;28;20055;-65
2023/04/21 02:42:03;;;;;;;28.38;19.17;;;;;;;7.38;100.00;101532.72;5074437;28;20029;-64
2023/04/21 02:44:28;;;;;;;25.98;18.70;;;;;;;7.39;100.00;101535.31;5079387;28;20093;-66
2023/04/21 02:46:54;;;;;;;26.30;19.10;;;;;;;7.37;100.00;101529.13;5068523;28;20405;-65
2023/04/21 02:49:19;;;;;;;30.45;19.27;;;;;;;7.39;100.00;101528.97;5062192;28;20066;-65
2023/04/21 02:51:45;;;;;;;29.88;19.48;;;;;;;7.41;100.00;101524.22;5078713;28;20024;-65
2023/04/21 02:54:10;;;;;;;30.48;19.90;;;;;;;7.42;100.00;101512.31;5064147;28;20111;-65
2023/04/21 02:56:36;;;;;;;27.00;19.23;;;;;;;7.41;100.00;101522.34;5058848;28;20073;-65
2023/04/21 02:59:01;;;;;;;28.00;18.48;;;;;;;7.43;100.00;101523.03;5076529;28;20039;-66
2023/04/21 03:01:26;;;;;;;27.30;18.52;;;;;;;7.45;100.00;101522.88;5054184;28;20588;-66
2023/04/21 03:03:52;;;;;;;29.98;18.55;;;;;;;7.41;100.00;101514.19;5066347;28;20055;-65
2023/04/21 03:06:17;;;;;;;26.38;19.30;;;;;;;7.44;100.00;101510.28;5060165;28;20068;-65
2023/04/21 03:08:43;;;;;;;28.17;18.38;;;;;;;7.43;100.00;101508.59;5075276;28;20386;-66
2023/04/21 03:11:08;;;;;;;25.98;19.30;;;;;;;7.43;100.00;101503.13;5078614;28;20035;-65
2023/04/21 03:13:34;;;;;;;29.23;19.35;;;;;;;7.41;100.00;101500.56;5079615;28;20086;-66
2023/04/21 03:15:59;;;;;;;31.08;20.55;;;;;;;7.38;100.00;101494.59;5079503;28;20031;-65
2023/04/21 03:18:25;;;;;;;26.30;18.88;;;;;;;7.42;100.00;101498.69;5079737;28;20038;-65
2023/04/21 03:20:50;;;;;;;28.33;20.13;;;;;;;7.42;100.00;101496.81;5058542;28;20054;-65
2023/04/21 03:23:16;;;;;;;30.17;20.67;;;;;;;7.47;100.00;101489.00;5073620;28;20353;-66
2023/04/21 03:25:41;;;;;;;28.35;19.77;;;;;;;7.48;100.00;101495.31;5062114;28;20032;-66
2023/04/21 03:28:07;;;;;;;33.08;21.00;;;;;;;7.45;100.00;101496.50;5069514;28;20020;-65
2023/04/21 03:30:32;;;;;;;31.80;21.63;;;;;;;7.45;100.00;101484.72;5079130;28;20049;-65
2023/04/21 03:32:58;;;;;;;29.55;21.60;;;;;;;7.41;100.00;101484.22;5078512;28;20485;-66
2023/04/21 03:35:23;;;;;;;32.90;22.38;;;;;;;7.47;100.00;101488.16;5077156;28;20047;-66
2023/04/21 03:37:49;;;;;;;36.25;22.75;;;;;;;7.42;100.00;101479.63;5071445;28;20439;-66
2023/04/21 03:40:15;;;;;;;32.30;22.65;;;;;;;7.42;100.00;101485.06;5075059;28;20122;-66
2023/04/21 03:42:40;;;;;;;36.50;22.73;;;;;;;7.41;100.00;101476.03;5075573;28;20024;-66
2023/04/21 03:45:07;;;;;;;30.02;22.50;;;;;;;7.39;100.00;101474.47;5061929;28;20036;-66
2023/04/21 03:47:33;;;;;;;36.53;22.63;;;;;;;7.40;100.00;101473.47;5071283;28;20071;-65
2023/04/21 03:49:58;;;;;;;36.88;23.90;;;;;;;7.41;100.00;101473.31;5080425;28;20118;-66
2023/04/21 03:52:24;;;;;;;34.75;22.60;;;;;;;7.36;100.00;101469.38;5075331;28;20409;-66
2023/04/21 03:54:49;;;;;;;37.25;22.30;;;;;;;7.33;100.00;101473.28;5082004;28;20085;-66
2023/04/21 03:57:15;;;;;;;35.47;22.75;;;;;;;7.33;100.00;101465.09;5080485;28;20436;-66
2023/04/21 03:59:41;;;;;;;33.53;21.90;;;;;;;7.34;100.00;101460.47;5084758;28;20071;-66
2023/04/21 04:02:06;;;;;;;35.72;22.60;;;;;;;7.30;100.00;101470.84;5078123;28;20385;-66
2023/04/21 04:04:32;;;;;;;36.17;24.00;;;;;;;7.24;100.00;101466.06;5065572;28;20404;-66
2023/04/21 04:06:57;;;;;;;38.17;23.13;;;;;;;7.26;100.00;101463.19;5081398;28;20021;-66
2023/04/21 04:09:23;;;;;;;34.65;22.40;;;;;;;7.26;100.00;101469.47;5078496;28;20025;-66
2023/04/21 04:11:48;;;;;;;35.15;23.77;;;;;;;7.31;100.00;101472.56;5081692;28;20036;-67
2023/04/21 04:14:14;;;;;;;36.13;23.65;;;;;;;7.30;100.00;101470.00;5084630;28;20437;-66
2023/04/21 04:16:40;;;;;;;38.30;24.00;;;;;;;7.31;100.00;101469.00;5080212;28;20500;-66
2023/04/21 04:19:06;;;;;;;37.57;24.70;;;;;;;7.31;100.00;101464.38;5064208;28;20107;-66
2023/04/21 04:21:31;;;;;;;39.88;26.70;;;;;;;7.37;100.00;101455.56;5083579;28;20063;-66
2023/04/21 04:23:57;;;;;;;39.08;25.63;;;;;;;7.37;100.00;101454.72;5078388;28;20020;-66
2023/04/21 04:26:24;;;;;;;42.85;27.27;;;;;;;7.38;100.00;101457.25;5082015;28;20500;-66
2023/04/21 04:28:50;;;;;;;45.17;28.50;;;;;;;7.47;100.00;101461.75;5080868;28;20032;-66
2023/04/21 04:31:16;;;;;;;46.33;29.63;;;;;;;7.44;100.00;101455.78;5068383;28;20060;-66
2023/04/21 04:33:41;;;;;;;53.90;30.48;;;;;;;7.47;100.00;101461.75;5079831;28;20437;-66
2023/04/21 04:36:07;;;;;;;48.17;29.58;;;;;;;7.49;100.00;101464.31;5081376;28;20465;-66
2023/04/21 04:38:34;;;;;;;52.97;30.73;;;;;;;7.53;100.00;101466.56;5061192;28;20074;-66
2023/04/21 04:41:01;;;;;;;;;;;;;;;7.52;100.00;101458.56;5078271;28;20031;-66
2023/04/21 04:43:26;;;;;;;55.03;29.70;;;;;;;7.56;100.00;101463.50;5081806;28;19927;-67
2023/04/21 04:45:52;;;;;;;50.20;31.02;;;;;;;7.56;100.00;101466.25;5058890;28;20366;-66
2023/04/21 04:48:17;;;;;;;48.97;30.55;;;;;;;7.60;100.00;101467.63;5075367;28;20032;-66
2023/04/21 04:50:43;;;;;;;46.65;30.85;;;;;;;7.57;100.00;101467.06;5084744;28;20698;-67
2023/04/21 04:53:08;;;;;;;50.20;31.23;;;;;;;7.59;100.00;101462.34;5077138;28;20539;-67
2023/04/21 04:55:34;;;;;;;50.38;31.52;;;;;;;7.58;100.00;101468.81;5075434;28;20105;-67
2023/04/21 04:58:00;;;;;;;50.75;32.50;;;;;;;7.61;100.00;101466.59;5078428;28;20507;-67
2023/04/21 05:00:27;;;;;;;51.75;32.58;;;;;;;7.60;100.00;101459.44;5075092;28;20126;-67
2023/04/21 05:02:53;;;;;;;58.80;33.40;;;;;;;7.60;100.00;101469.50;5077724;28;20067;-66
2023/04/21 05:05:19;;;;;;;55.30;33.13;;;;;;;7.59;100.00;101468.63;5077516;28;20485;-66
2023/04/21 05:07:44;;;;;;;58.10;33.57;;;;;;;7.63;100.00;101471.91;5059365;28;20619;-66
2023/04/21 05:10:10;;;;;;;55.85;32.55;;;;;;;7.66;100.00;101469.69;5081123;28;20038;-66
2023/04/21 05:12:35;;;;;;;58.80;34.30;;;;;;;7.66;100.00;101466.97;5075409;28;20074;-66
2023/04/21 05:15:01;;;;;;;55.40;34.75;;;;;;;7.66;100.00;101461.53;5080037;28;20388;-70
2023/04/21 05:17:27;;;;;;;54.13;33.53;;;;;;;7.73;100.00;101459.84;5061065;28;20158;-67
2023/04/21 05:19:52;;;;;;;52.28;32.80;;;;;;;7.78;100.00;101468.38;5063624;28;20020;-67
2023/04/21 05:22:18;;;;;;;55.90;34.85;;;;;;;7.78;100.00;101471.09;5057530;28;20036;-67
2023/04/21 05:24:43;;;;;;;57.08;33.97;;;;;;;7.78;100.00;101467.50;5063462;28;20076;-67
2023/04/21 05:27:09;;;;;;;57.80;35.55;;;;;;;7.80;100.00;101474.50;5077154;28;20036;-67
2023/04/21 05:29:34;;;;;;;59.13;35.72;;;;;;;7.82;100.00;101468.91;5078576;28;20020;-67
2023/04/21 05:32:00;;;;;;;62.00;37.13;;;;;;;7.84;100.00;101465.00;5053234;28;20381;-67
2023/04/21 05:34:25;;;;;;;58.47;35.97;;;;;;;7.90;100.00;101468.94;5078278;28;20177;-67
2023/04/21 05:36:51;;;;;;;56.03;35.53;;;;;;;7.94;100.00;101473.03;5074992;28;20033;-67
2023/04/21 05:39:17;;;;;;;63.92;36.63;;;;;;;7.93;100.00;101484.97;5059298;28;20145;-67
2023/04/21 05:41:42;;;;;;;60.35;36.72;;;;;;;8.00;100.00;101475.97;5076046;28;20028;-67
2023/04/21 05:44:08;;;;;;;65.32;37.38;;;;;;;8.06;100.00;101480.75;5080065;28;20028;-67
2023/04/21 05:46:33;;;;;;;63.05;38.60;;;;;;;8.04;100.00;101477.34;5058888;28;20033;-67
2023/04/21 05:49:01;;;;;;;62.92;39.08;;;;;;;8.05;100.00;101489.97;5059199;28;21106;-67
2023/04/21 05:51:26;;;;;;;61.58;38.20;;;;;;;8.11;100.00;101488.47;5066068;28;20036;-67
2023/04/21 05:53:52;;;;;;;61.60;39.00;;;;;;;8.14;100.00;101488.09;5076048;28;20025;-67
2023/04/21 05:56:17;;;;;;;62.45;38.92;;;;;;;8.20;100.00;101487.47;5076558;28;20055;-67
2023/04/21 05:58:43;;;;;;;61.70;39.47;;;;;;;8.23;100.00;101493.44;5074512;28;20115;-67
2023/04/21 06:01:08;;;;;;;65.65;39.38;;;;;;;8.28;100.00;101493.81;5078080;28;20078;-67
2023/04/21 06:03:34;;;;;;;72.10;41.17;;;;;;;8.33;100.00;101499.63;5079514;28;20040;-68
2023/04/21 06:06:01;;;;;;;61.80;38.13;;;;;;;8.42;100.00;101495.03;5076295;28;20045;-67
2023/04/21 06:08:26;;;;;;;68.32;41.90;;;;;;;8.42;100.00;101495.03;5060164;28;20062;-66
2023/04/21 06:10:52;;;;;;;67.53;40.90;;;;;;;8.40;100.00;101503.41;5072257;28;20115;-66
2023/04/21 06:13:17;;;;;;;65.20;41.08;;;;;;;8.45;100.00;101505.63;5077791;28;20074;-67
2023/04/21 06:15:42;;;;;;;71.47;41.00;;;;;;;8.41;100.00;101498.78;5065221;28;20052;-68
2023/04/21 06:18:08;;;;;;;72.45;44.22;;;;;;;8.39;100.00;101503.56;5059368;28;20129;-67
2023/04/21 06:20:33;;;;;;;72.38;43.70;;;;;;;8.42;100.00;101497.75;5077947;28;20109;-67
2023/04/21 06:22:59;;;;;;;69.65;42.50;;;;;;;8.52;100.00;101493.00;5076198;28;20635;-67
2023/04/21 06:25:24;;;;;;;73.10;42.47;;;;;;;8.58;100.00;101493.19;5074486;28;20024;-66
2023/04/21 06:27:50;;;;;;;70.97;42.88;;;;;;;8.64;100.00;101492.50;5072956;28;20028;-67
2023/04/21 06:30:16;;;;;;;70.38;42.53;;;;;;;8.69;100.00;101490.13;5058399;28;20141;-67
2023/04/21 06:32:42;;;;;;;73.13;44.47;;;;;;;8.65;100.00;101487.91;5061264;28;20547;-67
2023/04/21 06:35:08;;;;;;;68.00;43.95;;;;;;;8.70;100.00;101480.06;5078178;28;20063;-66
2023/04/21 06:37:33;;;;;;;67.22;42.28;;;;;;;8.85;100.00;101489.28;5075897;28;20056;-68
2023/04/21 06:39:58;;;;;;;68.18;43.30;;;;;;;8.70;100.00;101482.81;5060063;28;20036;-67
2023/04/21 06:42:24;;;;;;;69.10;44.55;;;;;;;8.71;100.00;101492.69;5060577;28;20024;-67
2023/04/21 06:44:49;;;;;;;68.22;42.53;;;;;;;8.86;100.00;101504.66;5077748;28;20020;-67
2023/04/21 06:47:15;;;;;;;61.70;41.85;;;;;;;9.01;100.00;101490.13;5081909;28;20031;-68
2023/04/21 06:49:41;;;;;;;69.13;43.60;;;;;;;9.35;100.00;101487.19;5064649;28;20453;-67
2023/04/21 06:52:06;;;;;;;62.90;41.17;;;;;;;9.40;100.00;101487.53;5076199;28;20397;-66
2023/04/21 06:54:32;;;;;;;68.72;43.22;;;;;;;9.78;100.00;101494.94;5076156;28;20451;-66
2023/04/21 06:56:57;;;;;;;61.80;41.63;;;;;;;10.00;100.00;101486.81;5074661;28;20021;-65
2023/04/21 06:59:23;;;;;;;59.28;38.78;;;;;;;10.04;100.00;101485.44;5071366;28;20084;-66
2023/04/21 07:01:51;;;;;;;60.58;40.38;;;;;;;9.85;100.00;101485.84;5058415;28;20196;-66
2023/04/21 07:04:19;;;;;;;61.30;39.88;;;;;;;9.86;100.00;101487.56;5078037;28;20378;-66
2023/04/21 07:06:46;;;;;;;58.40;40.95;;;;;;;9.91;100.00;101487.88;5076647;28;20024;-67
2023/04/21 07:09:11;;;;;;;62.85;39.58;;;;;;;9.92;100.00;101481.38;5077524;28;20032;-67
2023/04/21 07:11:37;;;;;;;54.53;37.88;;;;;;;9.61;100.00;101479.63;5058931;28;20024;-67
2023/04/21 07:14:02;;;;;;;60.55;39.08;;;;;;;9.86;100.00;101484.81;5080746;28;20032;-67
2023/04/21 07:16:29;;;;;;;60.25;39.30;;;;;;;10.12;100.00;101479.94;5076683;28;20024;-67
2023/04/21 07:18:54;;;;;;;54.80;37.33;;;;;;;10.00;100.00;101484.09;5059979;28;20024;-67
2023/04/21 07:21:19;;;;;;;53.50;36.72;;;;;;;10.19;100.00;101488.31;5078918;28;20028;-68
2023/04/21 07:23:45;;;;;;;54.30;37.23;;;;;;;10.54;100.00;101480.38;5074424;28;20025;-67
2023/04/21 07:26:10;;;;;;;52.00;37.00;;;;;;;10.47;100.00;101484.03;5063787;28;20082;-67
2023/04/21 07:28:37;;;;;;;57.53;37.78;;;;;;;10.55;100.00;101478.47;5078282;28;20538;-67
2023/04/21 07:31:03;;;;;;;54.78;37.15;;;;;;;10.35;100.00;101485.47;5061980;28;20054;-67
2023/04/21 07:33:28;;;;;;;53.93;37.80;;;;;;;10.20;100.00;101479.06;5072576;28;20063;-67
2023/04/21 07:35:54;;;;;;;51.05;36.33;;;;;;;10.14;100.00;101491.56;5079481;28;20106;-67
2023/04/21 07:38:19;;;;;;;54.80;38.40;;;;;;;10.14;100.00;101493.47;5065827;28;20377;-65
2023/04/21 07:40:45;;;;;;;52.43;36.07;;;;;;;10.14;100.00;101488.00;5077745;28;20118;-67
2023/04/21 07:43:10;;;;;;;53.60;37.83;;;;;;;10.19;100.00;101491.88;5077197;28;20029;-67
2023/04/21 07:45:35;;;;;;;52.20;36.63;;;;;;;10.15;100.00;101497.91;5074774;28;20028;-67
2023/04/21 07:48:01;;;;;;;53.10;37.37;;;;;;;10.18;100.00;101497.53;5078861;28;20081;-67
2023/04/21 07:50:26;;;;;;;52.67;37.33;;;;;;;10.32;100.00;101494.91;5063676;28;20081;-68
2023/04/21 07:52:52;;;;;;;51.30;36.33;;;;;;;10.34;100.00;101486.47;5072253;28;20036;-67
2023/04/21 07:55:17;;;;;;;56.65;38.13;;;;;;;10.74;100.00;101489.78;5078184;28;20156;-67
2023/04/21 07:57:43;;;;;;;51.73;36.87;;;;;;;10.69;100.00;101480.44;5056949;28;20357;-67
2023/04/21 08:00:09;;;;;;;55.38;37.35;;;;;;;10.69;100.00;101483.19;5078767;28;20049;-67
2023/04/21 08:02:34;;;;;;;56.97;38.13;;;;;;;10.45;100.00;101477.84;5070487;28;20036;-67
2023/04/21 08:04:59;;;;;;;53.23;38.80;;;;;;;10.77;100.00;101485.84;5077347;28;20035;-67
2023/04/21 08:07:25;;;;;;;50.67;36.83;;;;;;;10.90;100.00;101480.63;5072516;28;20287;-68
2023/04/21 08:09:50;;;;;;;51.00;37.23;;;;;;;10.97;100.00;101487.06;5074679;28;20032;-67
2023/04/21 08:12:16;;;;;;;53.33;36.25;;;;;;;11.05;99.45;101481.53;5075003;28;20415;-67
2023/04/21 08:14:41;;;;;;;50.80;37.13;;;;;;;11.34;98.01;101484.31;5079478;28;20108;-68
2023/04/21 08:17:07;;;;;;;52.97;36.53;;;;;;;11.14;98.50;101480.38;5074855;28;20032;-67
2023/04/21 08:19:32;;;;;;;47.67;35.30;;;;;;;11.16;98.12;101481.06;5078852;28;20067;-68
2023/04/21 08:21:57;;;;;;;48.57;35.80;;;;;;;11.62;95.40;101480.78;5073793;28;20066;-67
2023/04/21 08:24:23;;;;;;;51.53;35.10;;;;;;;12.10;96.45;101482.06;5075421;28;20046;-67
2023/04/21 08:26:49;;;;;;;50.63;34.83;;;;;;;11.82;93.45;101483.81;5059610;28;20039;-67
2023/04/21 08:29:15;;;;;;;47.67;35.63;;;;;;;11.54;95.10;101480.00;5071417;28;20020;-67
2023/04/21 08:31:41;;;;;;;46.83;34.10;;;;;;;11.50;94.52;101479.53;5058507;28;20039;-67
2023/04/21 08:34:07;;;;;;;47.47;33.33;;;;;;;11.69;94.23;101473.50;5068187;28;20411;-67
2023/04/21 08:36:32;;;;;;;41.40;31.83;;;;;;;11.99;94.07;101477.06;5088535;28;20032;-67
2023/04/21 08:38:58;;;;;;;43.87;32.20;;;;;;;11.81;93.25;101473.88;5065263;28;20030;-67
2023/04/21 08:41:25;;;;;;;49.17;32.53;;;;;;;12.25;92.31;101477.41;5081742;28;20027;-67
2023/04/21 08:43:50;;;;;;;42.85;30.75;;;;;;;12.36;90.09;101479.66;5064954;28;20104;-67
2023/04/21 08:46:17;;;;;;;34.67;27.60;;;;;;;12.07;89.26;101477.00;5078096;28;20569;-67
2023/04/21 08:48:45;;;;;;;39.00;29.17;;;;;;;12.24;89.50;101475.72;5076361;28;20038;-66
2023/04/21 08:51:13;;;;;;;37.88;27.05;;;;;;;12.55;86.60;101468.06;5082061;28;20115;-67
2023/04/21 08:53:40;;;;;;;34.17;25.98;;;;;;;12.81;86.54;101468.34;5079158;28;20051;-66
2023/04/21 08:56:06;;;;;;;33.42;24.88;;;;;;;12.90;84.05;101465.25;5080657;28;20020;-66
2023/04/21 08:58:31;;;;;;;30.90;23.90;;;;;;;13.11;85.84;101459.75;5083244;28;20111;-67
2023/04/21 09:00:57;;;;;;;31.73;24.80;;;;;;;12.78;86.00;101452.22;5076869;28;20090;-66
2023/04/21 09:03:24;;;;;;;30.08;23.13;;;;;;;12.59;82.95;101450.16;5058930;28;20025;-67
2023/04/21 09:06:00;;;;;;;31.67;24.13;;;;;;;12.81;85.52;101457.34;5076037;28;20392;-67
2023/04/21 09:08:29;;;;;;;29.67;23.25;;;;;;;12.62;83.91;101457.97;5077315;28;20055;-66
2023/04/21 09:10:56;;;;;;;34.85;23.27;;;;;;;12.90;85.55;101459.75;5065372;28;20131;-67
2023/04/21 09:13:27;;;;;;;;;;;;;;;12.92;84.47;101452.13;5077242;28;20032;-67
2023/04/21 09:15:52;;;;;;;33.17;24.52;;;;;;;13.03;83.65;101456.31;5078110;28;20324;-66
2023/04/21 09:18:24;;;;;;;29.20;23.80;;;;;;;13.00;84.12;101459.44;5075033;28;20073;-67
2023/04/21 09:21:04;;;;;;;29.08;24.33;;;;;;;13.23;83.29;101455.41;5079235;28;20020;-67
2023/04/21 09:23:30;;;;;;;30.48;23.10;;;;;;;13.32;81.79;101448.72;5075600;28;20026;-66
2023/04/21 09:25:55;;;;;;;29.07;23.17;;;;;;;13.45;81.57;101461.72;5061014;28;20479;-66
2023/04/21 09:28:21;;;;;;;34.10;22.57;;;;;;;13.20;82.40;101460.47;5076968;28;20028;-67
2023/04/21 09:30:47;;;;;;;31.13;24.50;;;;;;;13.87;81.95;101456.06;5086881;28;20055;-67
2023/04/21 09:33:18;;;;;;;32.42;22.80;;;;;;;13.79;80.42;101459.84;5078999;28;20492;-66
2023/04/21 09:35:44;;;;;;;28.65;22.92;;;;;;;13.67;78.68;101450.41;5061469;28;20114;-67
2023/04/21 09:38:11;;;;;;;30.47;23.93;;;;;;;14.00;78.56;101453.38;5063970;28;20042;-67
2023/04/21 09:40:37;;;;;;;38.22;23.95;;;;;;;14.13;77.83;101458.94;5077949;28;20028;-68
2023/04/21 09:43:03;;;;;;;30.45;23.35;;;;;;;14.45;75.61;101444.44;5078631;28;20619;-66
2023/04/21 09:45:28;;;;;;;27.07;21.73;;;;;;;14.46;74.91;101446.16;5075144;28;20119;-67
2023/04/21 09:47:56;;;;;;;30.00;22.30;;;;;;;14.57;74.22;101443.63;5080311;28;20032;-66
2023/04/21 09:50:23;;;;;;;27.58;22.35;;;;;;;15.05;72.97;101452.63;5066071;28;20632;-67
2023/04/21 09:52:53;;;;;;;28.55;21.33;;;;;;;15.25;71.92;101440.53;5078178;28;20040;-67
2023/04/21 09:55:25;;;;;;;28.95;22.70;;;;;;;15.14;72.84;101445.81;5060127;28;20617;-66
2023/04/21 09:57:56;;;;;;;27.15;23.23;;;;;;;14.83;72.10;101443.69;5076079;28;20382;-67
2023/04/21 10:00:27;;;;;;;29.40;22.08;;;;;;;15.33;72.01;101442.25;5075486;28;20047;-67
2023/04/21 10:02:54;;;;;;;29.48;23.23;;;;;;;15.39;69.88;101445.00;5079671;28;20024;-67
2023/04/21 10:05:19;;;;;;;27.25;22.65;;;;;;;15.19;70.86;101443.28;5067466;28;20035;-67
2023/04/21 10:07:46;;;;;;;26.83;22.53;;;;;;;15.02;72.40;101442.00;5057321;28;20043;-67
2023/04/21 10:10:23;;;;;;;28.13;21.73;;;;;;;15.22;70.12;101442.88;5078307;28;20549;-67
2023/04/21 10:12:50;;;;;;;26.42;21.55;;;;;;;15.54;70.76;101430.97;5076353;28;20059;-68
2023/04/21 10:15:40;;;;;;;26.02;20.60;;;;;;;15.76;69.43;101421.34;5079383;28;20505;-67
2023/04/21 10:18:18;;;;;;;24.88;19.38;;;;;;;15.90;67.30;101421.09;5066306;28;20035;-67
2023/04/21 10:20:50;;;;;;;23.08;18.80;;;;;;;16.33;66.31;101413.03;5080582;28;20035;-67
2023/04/21 10:23:51;;;;;;;21.20;18.08;;;;;;;16.07;67.05;101422.28;5057359;28;20036;-67
2023/04/21 10:26:19;;;;;;;21.88;19.00;;;;;;;16.18;66.92;101412.47;5073501;28;20037;-67
2023/04/21 10:28:47;;;;;;;21.55;17.30;;;;;;;16.09;67.61;101402.72;5056062;28;20019;-68
2023/04/21 10:31:19;;;;;;;24.58;19.88;;;;;;;16.09;65.76;101413.78;5079050;28;20110;-67
2023/04/21 10:34:08;;;;;;;23.63;18.48;;;;;;;15.77;64.03;101400.94;5074407;28;20428;-67
2023/04/21 10:36:52;;;;;;;21.67;17.77;;;;;;;16.24;65.10;101390.34;5077026;28;20024;-67
2023/04/21 10:39:29;;;;;;;21.50;18.20;;;;;;;16.66;65.01;101394.34;5064321;28;20028;-67
2023/04/21 10:41:57;;;;;;;22.05;18.27;;;;;;;17.05;66.03;101381.06;5061530;28;20401;-66
2023/04/21 10:44:23;;;;;;;21.17;17.48;;;;;;;16.77;60.91;101386.19;5057624;28;20040;-66
2023/04/21 10:46:52;;;;;;;20.80;17.20;;;;;;;16.31;63.51;101384.75;5076843;28;20035;-66
2023/04/21 10:49:18;;;;;;;24.90;19.65;;;;;;;15.53;66.22;101390.63;5076319;28;20474;-66
2023/04/21 10:52:02;;;;;;;22.10;18.73;;;;;;;15.97;66.08;101385.16;5053566;28;20067;-66
2023/04/21 10:54:45;;;;;;;26.67;19.42;;;;;;;15.27;67.27;101385.94;5078992;28;22092;-66
2023/04/21 10:57:13;;;;;;;24.00;19.77;;;;;;;15.57;69.13;101386.34;5063963;28;20043;-66
2023/04/21 10:59:39;;;;;;;22.52;19.77;;;;;;;16.08;66.73;101379.78;5070971;28;20554;-67
2023/04/21 11:02:06;;;;;;;21.73;19.00;;;;;;;15.98;66.48;101378.56;5068735;28;20036;-67
2023/04/21 11:04:32;;;;;;;;;;;;;;;16.22;65.08;101377.81;5076966;28;20116;-67
2023/04/21 11:07:09;;;;;;;22.25;17.95;;;;;;;16.03;67.23;101360.25;5078928;28;20374;-67